EGTE - Exeter Airport
Distance from station: E 5mi, 14km
Updated: 12/16/2017 12:50am
Few Clouds
Few Clouds
 Wind from NW
Wind: NW 6 mph , 9 km/h
Temperature: 36°F , 2°C
Wind Chill: 31°F , -1°C
Dew Point: 34°F , 1°C
Humidity: 93%
Barometer: 30.12 inHg , 1020 hPa
Clouds: Few Clouds
Visibility: 6 miles , 10 km
Cloud details: Few Clouds 3500 ft
2017/12/16 08:50 EGTE 160850Z 32005KT 9999 FEW035 02/01 Q1020